sensor_id;sensor_type;location;lat;lon;timestamp;P1;durP1;ratioP1;P2;durP2;ratioP2
12880;SDS011;6508;53.786;9.996;2023-07-31T00:00:54;16.55;;;4.43;;
12880;SDS011;6508;53.786;9.996;2023-07-31T00:03:21;4.95;;;4.30;;
12880;SDS011;6508;53.786;9.996;2023-07-31T00:05:49;7.50;;;3.80;;
12880;SDS011;6508;53.786;9.996;2023-07-31T00:08:17;5.78;;;3.78;;
12880;SDS011;6508;53.786;9.996;2023-07-31T00:10:45;5.30;;;4.15;;
12880;SDS011;6508;53.786;9.996;2023-07-31T00:13:13;5.90;;;3.90;;
12880;SDS011;6508;53.786;9.996;2023-07-31T00:15:41;7.38;;;4.00;;
12880;SDS011;6508;53.786;9.996;2023-07-31T00:18:10;8.10;;;3.90;;
12880;SDS011;6508;53.786;9.996;2023-07-31T00:20:38;9.60;;;4.25;;
12880;SDS011;6508;53.786;9.996;2023-07-31T00:23:05;6.18;;;4.13;;
12880;SDS011;6508;53.786;9.996;2023-07-31T00:25:33;6.40;;;3.75;;
12880;SDS011;6508;53.786;9.996;2023-07-31T00:28:01;5.07;;;3.03;;
12880;SDS011;6508;53.786;9.996;2023-07-31T00:30:29;6.18;;;4.13;;
12880;SDS011;6508;53.786;9.996;2023-07-31T00:32:56;7.80;;;4.03;;
12880;SDS011;6508;53.786;9.996;2023-07-31T00:35:25;7.70;;;3.67;;
12880;SDS011;6508;53.786;9.996;2023-07-31T00:37:53;6.22;;;3.45;;
12880;SDS011;6508;53.786;9.996;2023-07-31T00:40:20;5.18;;;3.97;;
12880;SDS011;6508;53.786;9.996;2023-07-31T00:42:48;10.13;;;4.93;;
12880;SDS011;6508;53.786;9.996;2023-07-31T00:45:16;5.80;;;3.92;;
12880;SDS011;6508;53.786;9.996;2023-07-31T00:47:44;8.77;;;3.63;;
12880;SDS011;6508;53.786;9.996;2023-07-31T00:50:12;5.57;;;3.55;;
12880;SDS011;6508;53.786;9.996;2023-07-31T00:52:41;10.10;;;4.18;;
12880;SDS011;6508;53.786;9.996;2023-07-31T00:55:09;7.80;;;3.78;;
12880;SDS011;6508;53.786;9.996;2023-07-31T00:57:37;4.85;;;3.97;;
12880;SDS011;6508;53.786;9.996;2023-07-31T01:00:05;6.35;;;3.85;;
12880;SDS011;6508;53.786;9.996;2023-07-31T01:02:34;5.32;;;3.55;;
12880;SDS011;6508;53.786;9.996;2023-07-31T01:05:02;7.25;;;3.88;;
12880;SDS011;6508;53.786;9.996;2023-07-31T01:07:32;8.98;;;4.20;;
12880;SDS011;6508;53.786;9.996;2023-07-31T01:10:04;6.75;;;3.58;;
12880;SDS011;6508;53.786;9.996;2023-07-31T01:12:34;8.80;;;3.92;;
12880;SDS011;6508;53.786;9.996;2023-07-31T01:15:04;8.55;;;3.90;;
12880;SDS011;6508;53.786;9.996;2023-07-31T01:17:33;12.60;;;4.53;;
12880;SDS011;6508;53.786;9.996;2023-07-31T01:20:02;7.38;;;3.85;;
12880;SDS011;6508;53.786;9.996;2023-07-31T01:22:32;10.57;;;3.75;;
12880;SDS011;6508;53.786;9.996;2023-07-31T01:25:12;9.30;;;3.90;;
12880;SDS011;6508;53.786;9.996;2023-07-31T01:27:43;7.65;;;3.70;;
12880;SDS011;6508;53.786;9.996;2023-07-31T01:30:14;9.10;;;4.13;;
12880;SDS011;6508;53.786;9.996;2023-07-31T01:32:43;8.63;;;4.30;;
12880;SDS011;6508;53.786;9.996;2023-07-31T01:35:14;8.73;;;4.93;;
12880;SDS011;6508;53.786;9.996;2023-07-31T01:37:43;4.35;;;3.53;;
12880;SDS011;6508;53.786;9.996;2023-07-31T01:40:10;7.30;;;3.97;;
12880;SDS011;6508;53.786;9.996;2023-07-31T01:42:38;9.57;;;4.28;;
12880;SDS011;6508;53.786;9.996;2023-07-31T01:45:07;8.05;;;3.97;;
12880;SDS011;6508;53.786;9.996;2023-07-31T01:47:35;6.57;;;3.78;;
12880;SDS011;6508;53.786;9.996;2023-07-31T01:50:03;10.18;;;3.65;;
12880;SDS011;6508;53.786;9.996;2023-07-31T01:52:31;4.47;;;4.05;;
12880;SDS011;6508;53.786;9.996;2023-07-31T01:54:59;7.70;;;3.42;;
12880;SDS011;6508;53.786;9.996;2023-07-31T01:57:27;6.40;;;4.78;;
12880;SDS011;6508;53.786;9.996;2023-07-31T01:59:55;6.22;;;3.67;;
12880;SDS011;6508;53.786;9.996;2023-07-31T02:02:24;7.10;;;4.22;;
12880;SDS011;6508;53.786;9.996;2023-07-31T02:04:52;11.63;;;4.13;;
12880;SDS011;6508;53.786;9.996;2023-07-31T02:07:19;7.97;;;4.22;;
12880;SDS011;6508;53.786;9.996;2023-07-31T02:09:47;8.57;;;4.28;;
12880;SDS011;6508;53.786;9.996;2023-07-31T02:12:16;9.40;;;4.13;;
12880;SDS011;6508;53.786;9.996;2023-07-31T02:14:43;10.02;;;4.78;;
12880;SDS011;6508;53.786;9.996;2023-07-31T02:17:12;7.85;;;4.07;;
12880;SDS011;6508;53.786;9.996;2023-07-31T02:19:41;5.45;;;4.25;;
12880;SDS011;6508;53.786;9.996;2023-07-31T02:22:09;5.55;;;4.10;;
12880;SDS011;6508;53.786;9.996;2023-07-31T02:24:37;5.70;;;4.35;;
12880;SDS011;6508;53.786;9.996;2023-07-31T02:27:04;9.85;;;4.70;;
12880;SDS011;6508;53.786;9.996;2023-07-31T02:29:33;8.82;;;4.63;;
12880;SDS011;6508;53.786;9.996;2023-07-31T02:32:00;8.65;;;4.45;;
12880;SDS011;6508;53.786;9.996;2023-07-31T02:34:28;11.98;;;4.82;;
12880;SDS011;6508;53.786;9.996;2023-07-31T02:36:57;7.07;;;4.45;;
12880;SDS011;6508;53.786;9.996;2023-07-31T02:39:25;10.50;;;5.07;;
12880;SDS011;6508;53.786;9.996;2023-07-31T02:41:53;14.18;;;4.30;;
12880;SDS011;6508;53.786;9.996;2023-07-31T02:44:22;10.48;;;5.00;;
12880;SDS011;6508;53.786;9.996;2023-07-31T02:46:50;11.50;;;5.25;;
12880;SDS011;6508;53.786;9.996;2023-07-31T02:49:17;6.82;;;4.93;;
12880;SDS011;6508;53.786;9.996;2023-07-31T02:51:45;8.50;;;5.00;;
12880;SDS011;6508;53.786;9.996;2023-07-31T02:54:14;7.05;;;4.70;;
12880;SDS011;6508;53.786;9.996;2023-07-31T02:56:42;7.25;;;4.68;;
12880;SDS011;6508;53.786;9.996;2023-07-31T02:59:10;6.88;;;4.60;;
12880;SDS011;6508;53.786;9.996;2023-07-31T03:01:38;11.60;;;5.00;;
12880;SDS011;6508;53.786;9.996;2023-07-31T03:04:06;6.57;;;4.88;;
12880;SDS011;6508;53.786;9.996;2023-07-31T03:06:35;10.45;;;4.80;;
12880;SDS011;6508;53.786;9.996;2023-07-31T03:09:03;7.55;;;5.05;;
12880;SDS011;6508;53.786;9.996;2023-07-31T03:11:32;8.98;;;5.03;;
12880;SDS011;6508;53.786;9.996;2023-07-31T03:14:00;7.10;;;4.95;;
12880;SDS011;6508;53.786;9.996;2023-07-31T03:16:28;7.13;;;5.15;;
12880;SDS011;6508;53.786;9.996;2023-07-31T03:18:56;9.10;;;4.53;;
12880;SDS011;6508;53.786;9.996;2023-07-31T03:21:24;9.65;;;4.72;;
12880;SDS011;6508;53.786;9.996;2023-07-31T03:23:52;6.57;;;5.07;;
12880;SDS011;6508;53.786;9.996;2023-07-31T03:26:19;8.23;;;4.57;;
12880;SDS011;6508;53.786;9.996;2023-07-31T03:28:49;8.82;;;5.05;;
12880;SDS011;6508;53.786;9.996;2023-07-31T03:31:16;7.95;;;4.85;;
12880;SDS011;6508;53.786;9.996;2023-07-31T03:33:44;9.70;;;5.53;;
12880;SDS011;6508;53.786;9.996;2023-07-31T03:36:12;6.72;;;4.80;;
12880;SDS011;6508;53.786;9.996;2023-07-31T03:38:39;7.18;;;5.05;;
12880;SDS011;6508;53.786;9.996;2023-07-31T03:41:07;6.00;;;4.97;;
12880;SDS011;6508;53.786;9.996;2023-07-31T03:43:35;6.30;;;4.82;;
12880;SDS011;6508;53.786;9.996;2023-07-31T03:46:04;7.93;;;4.88;;
12880;SDS011;6508;53.786;9.996;2023-07-31T03:48:32;7.63;;;5.22;;
12880;SDS011;6508;53.786;9.996;2023-07-31T03:50:59;8.23;;;4.68;;
12880;SDS011;6508;53.786;9.996;2023-07-31T03:53:27;8.10;;;5.13;;
12880;SDS011;6508;53.786;9.996;2023-07-31T03:55:55;8.70;;;4.93;;
12880;SDS011;6508;53.786;9.996;2023-07-31T03:58:23;11.85;;;4.85;;
12880;SDS011;6508;53.786;9.996;2023-07-31T04:00:51;7.30;;;4.47;;
12880;SDS011;6508;53.786;9.996;2023-07-31T04:03:20;6.82;;;4.57;;
12880;SDS011;6508;53.786;9.996;2023-07-31T04:05:48;6.80;;;5.00;;
12880;SDS011;6508;53.786;9.996;2023-07-31T04:08:15;8.95;;;5.18;;
12880;SDS011;6508;53.786;9.996;2023-07-31T04:10:43;7.25;;;4.60;;
12880;SDS011;6508;53.786;9.996;2023-07-31T04:13:11;8.02;;;4.85;;
12880;SDS011;6508;53.786;9.996;2023-07-31T04:15:38;9.48;;;5.45;;
12880;SDS011;6508;53.786;9.996;2023-07-31T04:18:06;7.72;;;5.05;;
12880;SDS011;6508;53.786;9.996;2023-07-31T04:20:36;5.55;;;4.97;;
12880;SDS011;6508;53.786;9.996;2023-07-31T04:23:04;6.93;;;4.55;;
12880;SDS011;6508;53.786;9.996;2023-07-31T04:25:31;6.47;;;5.00;;
12880;SDS011;6508;53.786;9.996;2023-07-31T04:28:01;5.60;;;4.90;;
12880;SDS011;6508;53.786;9.996;2023-07-31T04:30:28;5.45;;;5.00;;
12880;SDS011;6508;53.786;9.996;2023-07-31T04:32:56;6.10;;;5.35;;
12880;SDS011;6508;53.786;9.996;2023-07-31T04:35:24;9.02;;;6.25;;
12880;SDS011;6508;53.786;9.996;2023-07-31T04:37:53;8.32;;;5.38;;
12880;SDS011;6508;53.786;9.996;2023-07-31T04:40:21;5.63;;;5.00;;
12880;SDS011;6508;53.786;9.996;2023-07-31T04:42:49;5.63;;;5.13;;
12880;SDS011;6508;53.786;9.996;2023-07-31T04:45:17;9.07;;;5.43;;
12880;SDS011;6508;53.786;9.996;2023-07-31T04:47:44;6.25;;;5.20;;
12880;SDS011;6508;53.786;9.996;2023-07-31T04:50:12;6.05;;;5.35;;
12880;SDS011;6508;53.786;9.996;2023-07-31T04:52:40;6.45;;;5.13;;
12880;SDS011;6508;53.786;9.996;2023-07-31T04:55:09;5.28;;;4.60;;
12880;SDS011;6508;53.786;9.996;2023-07-31T04:57:36;6.63;;;4.97;;
12880;SDS011;6508;53.786;9.996;2023-07-31T05:00:05;7.78;;;5.57;;
12880;SDS011;6508;53.786;9.996;2023-07-31T05:02:32;6.47;;;5.47;;
12880;SDS011;6508;53.786;9.996;2023-07-31T05:05:00;6.95;;;5.45;;
12880;SDS011;6508;53.786;9.996;2023-07-31T05:07:29;7.53;;;5.80;;
12880;SDS011;6508;53.786;9.996;2023-07-31T05:09:56;6.30;;;5.28;;
12880;SDS011;6508;53.786;9.996;2023-07-31T05:12:25;5.20;;;4.78;;
12880;SDS011;6508;53.786;9.996;2023-07-31T05:14:53;6.35;;;5.75;;
12880;SDS011;6508;53.786;9.996;2023-07-31T05:17:21;6.00;;;5.28;;
12880;SDS011;6508;53.786;9.996;2023-07-31T05:19:48;5.18;;;4.68;;
12880;SDS011;6508;53.786;9.996;2023-07-31T05:22:16;5.75;;;5.25;;
12880;SDS011;6508;53.786;9.996;2023-07-31T05:24:44;4.88;;;4.45;;
12880;SDS011;6508;53.786;9.996;2023-07-31T05:27:11;5.00;;;4.50;;
12880;SDS011;6508;53.786;9.996;2023-07-31T05:29:42;7.50;;;4.60;;
12880;SDS011;6508;53.786;9.996;2023-07-31T05:32:10;8.88;;;5.63;;
12880;SDS011;6508;53.786;9.996;2023-07-31T05:34:37;4.57;;;4.18;;
12880;SDS011;6508;53.786;9.996;2023-07-31T05:37:05;5.47;;;4.97;;
12880;SDS011;6508;53.786;9.996;2023-07-31T05:39:33;4.80;;;4.40;;
12880;SDS011;6508;53.786;9.996;2023-07-31T05:42:01;4.80;;;4.40;;
12880;SDS011;6508;53.786;9.996;2023-07-31T05:44:29;4.90;;;4.50;;
12880;SDS011;6508;53.786;9.996;2023-07-31T05:46:58;4.47;;;4.13;;
12880;SDS011;6508;53.786;9.996;2023-07-31T05:49:26;4.57;;;4.28;;
12880;SDS011;6508;53.786;9.996;2023-07-31T05:51:54;5.53;;;5.10;;
12880;SDS011;6508;53.786;9.996;2023-07-31T05:54:22;4.28;;;3.88;;
12880;SDS011;6508;53.786;9.996;2023-07-31T05:56:49;4.53;;;4.22;;
12880;SDS011;6508;53.786;9.996;2023-07-31T05:59:17;4.43;;;4.03;;
12880;SDS011;6508;53.786;9.996;2023-07-31T06:01:44;5.55;;;4.55;;
12880;SDS011;6508;53.786;9.996;2023-07-31T06:04:13;4.57;;;4.28;;
12880;SDS011;6508;53.786;9.996;2023-07-31T06:06:41;4.50;;;4.20;;
12880;SDS011;6508;53.786;9.996;2023-07-31T06:09:10;4.55;;;4.10;;
12880;SDS011;6508;53.786;9.996;2023-07-31T06:11:38;4.53;;;4.10;;
12880;SDS011;6508;53.786;9.996;2023-07-31T06:14:05;4.40;;;4.00;;
12880;SDS011;6508;53.786;9.996;2023-07-31T06:16:33;4.30;;;3.90;;
12880;SDS011;6508;53.786;9.996;2023-07-31T06:19:01;4.32;;;3.42;;
12880;SDS011;6508;53.786;9.996;2023-07-31T06:21:30;3.95;;;3.65;;
12880;SDS011;6508;53.786;9.996;2023-07-31T06:23:57;4.20;;;3.90;;
12880;SDS011;6508;53.786;9.996;2023-07-31T06:26:25;3.60;;;3.40;;
12880;SDS011;6508;53.786;9.996;2023-07-31T06:28:53;4.20;;;3.90;;
12880;SDS011;6508;53.786;9.996;2023-07-31T06:31:21;4.00;;;3.63;;
12880;SDS011;6508;53.786;9.996;2023-07-31T06:33:50;3.63;;;3.33;;
12880;SDS011;6508;53.786;9.996;2023-07-31T06:36:18;3.30;;;3.10;;
12880;SDS011;6508;53.786;9.996;2023-07-31T06:38:47;3.85;;;3.47;;
12880;SDS011;6508;53.786;9.996;2023-07-31T06:41:14;3.35;;;3.15;;
12880;SDS011;6508;53.786;9.996;2023-07-31T06:43:42;3.47;;;3.20;;
12880;SDS011;6508;53.786;9.996;2023-07-31T06:46:10;3.03;;;2.75;;
12880;SDS011;6508;53.786;9.996;2023-07-31T06:48:38;2.70;;;2.50;;
12880;SDS011;6508;53.786;9.996;2023-07-31T06:51:05;2.70;;;2.50;;
12880;SDS011;6508;53.786;9.996;2023-07-31T06:53:33;3.33;;;2.70;;
12880;SDS011;6508;53.786;9.996;2023-07-31T06:56:02;2.65;;;2.50;;
12880;SDS011;6508;53.786;9.996;2023-07-31T06:58:30;2.55;;;2.40;;
12880;SDS011;6508;53.786;9.996;2023-07-31T07:00:57;2.67;;;2.47;;
12880;SDS011;6508;53.786;9.996;2023-07-31T07:03:27;3.85;;;2.40;;
12880;SDS011;6508;53.786;9.996;2023-07-31T07:05:54;2.28;;;2.17;;
12880;SDS011;6508;53.786;9.996;2023-07-31T07:08:22;4.28;;;2.47;;
12880;SDS011;6508;53.786;9.996;2023-07-31T07:10:52;2.45;;;2.15;;
12880;SDS011;6508;53.786;9.996;2023-07-31T07:13:22;2.72;;;2.53;;
12880;SDS011;6508;53.786;9.996;2023-07-31T07:15:50;2.05;;;1.95;;
12880;SDS011;6508;53.786;9.996;2023-07-31T07:18:18;2.63;;;2.42;;
12880;SDS011;6508;53.786;9.996;2023-07-31T07:20:46;2.70;;;2.50;;
12880;SDS011;6508;53.786;9.996;2023-07-31T07:23:13;2.88;;;2.67;;
12880;SDS011;6508;53.786;9.996;2023-07-31T07:25:41;2.58;;;2.47;;
12880;SDS011;6508;53.786;9.996;2023-07-31T07:28:09;2.88;;;2.63;;
12880;SDS011;6508;53.786;9.996;2023-07-31T07:30:38;2.60;;;2.40;;
12880;SDS011;6508;53.786;9.996;2023-07-31T07:33:06;3.20;;;3.00;;
12880;SDS011;6508;53.786;9.996;2023-07-31T07:35:34;3.13;;;2.92;;
12880;SDS011;6508;53.786;9.996;2023-07-31T07:38:02;3.30;;;3.10;;
12880;SDS011;6508;53.786;9.996;2023-07-31T07:40:30;3.00;;;2.80;;
12880;SDS011;6508;53.786;9.996;2023-07-31T07:42:58;3.03;;;2.83;;
12880;SDS011;6508;53.786;9.996;2023-07-31T07:45:26;3.20;;;3.00;;
12880;SDS011;6508;53.786;9.996;2023-07-31T07:47:55;3.35;;;3.10;;
12880;SDS011;6508;53.786;9.996;2023-07-31T07:50:24;3.42;;;3.22;;
12880;SDS011;6508;53.786;9.996;2023-07-31T07:52:52;3.42;;;3.20;;
12880;SDS011;6508;53.786;9.996;2023-07-31T07:55:19;3.42;;;3.20;;
12880;SDS011;6508;53.786;9.996;2023-07-31T07:57:47;3.08;;;2.88;;
12880;SDS011;6508;53.786;9.996;2023-07-31T08:00:16;3.17;;;2.97;;
12880;SDS011;6508;53.786;9.996;2023-07-31T08:02:44;3.30;;;3.10;;
12880;SDS011;6508;53.786;9.996;2023-07-31T08:05:14;3.40;;;3.20;;
12880;SDS011;6508;53.786;9.996;2023-07-31T08:07:43;3.30;;;3.10;;
12880;SDS011;6508;53.786;9.996;2023-07-31T08:10:11;2.97;;;2.78;;
12880;SDS011;6508;53.786;9.996;2023-07-31T08:12:39;3.63;;;3.42;;
12880;SDS011;6508;53.786;9.996;2023-07-31T08:15:07;3.20;;;2.92;;
12880;SDS011;6508;53.786;9.996;2023-07-31T08:17:35;3.25;;;3.05;;
12880;SDS011;6508;53.786;9.996;2023-07-31T08:20:03;2.88;;;2.67;;
12880;SDS011;6508;53.786;9.996;2023-07-31T08:22:32;3.28;;;3.08;;
12880;SDS011;6508;53.786;9.996;2023-07-31T08:25:00;3.30;;;3.10;;
12880;SDS011;6508;53.786;9.996;2023-07-31T08:27:28;3.97;;;3.40;;
12880;SDS011;6508;53.786;9.996;2023-07-31T08:29:55;2.97;;;2.78;;
12880;SDS011;6508;53.786;9.996;2023-07-31T08:32:23;3.05;;;2.75;;
12880;SDS011;6508;53.786;9.996;2023-07-31T08:34:51;3.65;;;3.35;;
12880;SDS011;6508;53.786;9.996;2023-07-31T08:37:19;3.00;;;2.83;;
12880;SDS011;6508;53.786;9.996;2023-07-31T08:39:48;4.00;;;3.30;;
12880;SDS011;6508;53.786;9.996;2023-07-31T08:42:16;3.22;;;3.03;;
12880;SDS011;6508;53.786;9.996;2023-07-31T08:44:43;3.30;;;3.10;;
12880;SDS011;6508;53.786;9.996;2023-07-31T08:47:12;3.47;;;3.20;;
12880;SDS011;6508;53.786;9.996;2023-07-31T08:49:40;3.25;;;2.97;;
12880;SDS011;6508;53.786;9.996;2023-07-31T08:52:08;3.60;;;3.40;;
12880;SDS011;6508;53.786;9.996;2023-07-31T08:54:37;3.63;;;3.38;;
12880;SDS011;6508;53.786;9.996;2023-07-31T08:57:07;2.92;;;2.72;;
12880;SDS011;6508;53.786;9.996;2023-07-31T08:59:36;2.83;;;2.65;;
12880;SDS011;6508;53.786;9.996;2023-07-31T09:02:05;2.60;;;2.50;;
12880;SDS011;6508;53.786;9.996;2023-07-31T09:04:34;2.50;;;2.40;;
12880;SDS011;6508;53.786;9.996;2023-07-31T09:07:03;2.20;;;2.10;;
12880;SDS011;6508;53.786;9.996;2023-07-31T09:09:31;2.20;;;2.10;;
12880;SDS011;6508;53.786;9.996;2023-07-31T09:11:59;2.40;;;2.30;;
12880;SDS011;6508;53.786;9.996;2023-07-31T09:14:28;2.25;;;2.15;;
12880;SDS011;6508;53.786;9.996;2023-07-31T09:16:56;2.50;;;2.40;;
12880;SDS011;6508;53.786;9.996;2023-07-31T09:19:26;1.88;;;1.77;;
12880;SDS011;6508;53.786;9.996;2023-07-31T09:21:54;2.03;;;1.92;;
12880;SDS011;6508;53.786;9.996;2023-07-31T09:24:25;2.13;;;2.03;;
12880;SDS011;6508;53.786;9.996;2023-07-31T09:26:54;2.15;;;2.00;;
12880;SDS011;6508;53.786;9.996;2023-07-31T09:29:22;2.00;;;1.90;;
12880;SDS011;6508;53.786;9.996;2023-07-31T09:31:52;2.05;;;1.60;;
12880;SDS011;6508;53.786;9.996;2023-07-31T09:34:20;1.98;;;1.88;;
12880;SDS011;6508;53.786;9.996;2023-07-31T09:36:49;1.85;;;1.75;;
12880;SDS011;6508;53.786;9.996;2023-07-31T09:39:17;1.85;;;1.75;;
12880;SDS011;6508;53.786;9.996;2023-07-31T09:41:47;1.65;;;1.55;;
12880;SDS011;6508;53.786;9.996;2023-07-31T09:44:15;1.52;;;1.42;;
12880;SDS011;6508;53.786;9.996;2023-07-31T09:46:43;2.05;;;1.50;;
12880;SDS011;6508;53.786;9.996;2023-07-31T09:49:12;1.40;;;1.30;;
12880;SDS011;6508;53.786;9.996;2023-07-31T09:51:41;1.27;;;1.20;;
12880;SDS011;6508;53.786;9.996;2023-07-31T09:54:09;1.65;;;1.50;;
12880;SDS011;6508;53.786;9.996;2023-07-31T09:56:41;1.45;;;1.35;;
12880;SDS011;6508;53.786;9.996;2023-07-31T09:59:10;1.27;;;1.17;;
12880;SDS011;6508;53.786;9.996;2023-07-31T10:01:38;1.55;;;1.50;;
12880;SDS011;6508;53.786;9.996;2023-07-31T10:04:07;1.30;;;1.20;;
12880;SDS011;6508;53.786;9.996;2023-07-31T10:06:37;1.40;;;1.38;;
12880;SDS011;6508;53.786;9.996;2023-07-31T10:09:06;1.45;;;1.33;;
12880;SDS011;6508;53.786;9.996;2023-07-31T10:11:36;1.27;;;1.17;;
12880;SDS011;6508;53.786;9.996;2023-07-31T10:14:05;1.20;;;1.17;;
12880;SDS011;6508;53.786;9.996;2023-07-31T10:16:33;1.85;;;1.75;;
12880;SDS011;6508;53.786;9.996;2023-07-31T10:19:02;1.30;;;1.20;;
12880;SDS011;6508;53.786;9.996;2023-07-31T10:21:30;1.73;;;1.45;;
12880;SDS011;6508;53.786;9.996;2023-07-31T10:24:03;1.20;;;1.20;;
12880;SDS011;6508;53.786;9.996;2023-07-31T10:26:31;1.40;;;1.30;;
12880;SDS011;6508;53.786;9.996;2023-07-31T10:28:59;0.93;;;0.93;;
12880;SDS011;6508;53.786;9.996;2023-07-31T10:31:27;1.45;;;1.05;;
12880;SDS011;6508;53.786;9.996;2023-07-31T10:33:56;1.02;;;0.95;;
12880;SDS011;6508;53.786;9.996;2023-07-31T10:36:25;1.13;;;0.88;;
12880;SDS011;6508;53.786;9.996;2023-07-31T10:38:55;1.17;;;0.70;;
12880;SDS011;6508;53.786;9.996;2023-07-31T10:41:29;1.42;;;1.10;;
12880;SDS011;6508;53.786;9.996;2023-07-31T10:43:58;1.60;;;1.00;;
12880;SDS011;6508;53.786;9.996;2023-07-31T10:46:25;1.65;;;1.10;;
12880;SDS011;6508;53.786;9.996;2023-07-31T10:48:58;1.42;;;0.98;;
12880;SDS011;6508;53.786;9.996;2023-07-31T10:51:32;1.55;;;0.90;;
12880;SDS011;6508;53.786;9.996;2023-07-31T10:54:10;0.73;;;0.73;;
12880;SDS011;6508;53.786;9.996;2023-07-31T10:56:39;0.60;;;0.57;;
12880;SDS011;6508;53.786;9.996;2023-07-31T10:59:07;0.68;;;0.60;;
12880;SDS011;6508;53.786;9.996;2023-07-31T11:01:51;0.55;;;0.52;;
12880;SDS011;6508;53.786;9.996;2023-07-31T11:04:22;0.82;;;0.60;;
12880;SDS011;6508;53.786;9.996;2023-07-31T11:06:57;0.50;;;0.50;;
12880;SDS011;6508;53.786;9.996;2023-07-31T11:09:27;0.70;;;0.60;;
12880;SDS011;6508;53.786;9.996;2023-07-31T11:11:57;0.40;;;0.40;;
12880;SDS011;6508;53.786;9.996;2023-07-31T11:14:24;0.40;;;0.40;;
12880;SDS011;6508;53.786;9.996;2023-07-31T11:16:52;1.95;;;0.73;;
12880;SDS011;6508;53.786;9.996;2023-07-31T11:19:23;1.33;;;0.60;;
12880;SDS011;6508;53.786;9.996;2023-07-31T11:21:51;0.57;;;0.52;;
12880;SDS011;6508;53.786;9.996;2023-07-31T11:24:19;0.70;;;0.70;;
12880;SDS011;6508;53.786;9.996;2023-07-31T11:26:50;0.50;;;0.50;;
12880;SDS011;6508;53.786;9.996;2023-07-31T11:29:20;1.73;;;0.82;;
12880;SDS011;6508;53.786;9.996;2023-07-31T11:31:48;0.77;;;0.77;;
12880;SDS011;6508;53.786;9.996;2023-07-31T11:34:16;0.90;;;0.90;;
12880;SDS011;6508;53.786;9.996;2023-07-31T11:36:53;1.27;;;0.90;;
12880;SDS011;6508;53.786;9.996;2023-07-31T11:39:21;0.90;;;0.85;;
12880;SDS011;6508;53.786;9.996;2023-07-31T11:41:49;0.90;;;0.90;;
12880;SDS011;6508;53.786;9.996;2023-07-31T11:44:16;1.15;;;0.90;;
12880;SDS011;6508;53.786;9.996;2023-07-31T11:46:55;0.95;;;0.88;;
12880;SDS011;6508;53.786;9.996;2023-07-31T11:49:23;0.70;;;0.70;;
12880;SDS011;6508;53.786;9.996;2023-07-31T11:51:51;0.75;;;0.70;;
12880;SDS011;6508;53.786;9.996;2023-07-31T11:54:19;1.25;;;0.70;;
12880;SDS011;6508;53.786;9.996;2023-07-31T11:56:47;1.05;;;0.90;;
12880;SDS011;6508;53.786;9.996;2023-07-31T11:59:16;1.88;;;1.50;;
12880;SDS011;6508;53.786;9.996;2023-07-31T12:01:44;1.13;;;0.85;;
12880;SDS011;6508;53.786;9.996;2023-07-31T12:04:13;1.67;;;1.00;;
12880;SDS011;6508;53.786;9.996;2023-07-31T12:06:41;0.88;;;0.70;;
12880;SDS011;6508;53.786;9.996;2023-07-31T12:09:09;0.75;;;0.75;;
12880;SDS011;6508;53.786;9.996;2023-07-31T12:11:42;0.88;;;0.88;;
12880;SDS011;6508;53.786;9.996;2023-07-31T12:14:18;0.70;;;0.70;;
12880;SDS011;6508;53.786;9.996;2023-07-31T12:16:46;0.98;;;0.98;;
12880;SDS011;6508;53.786;9.996;2023-07-31T12:19:15;0.82;;;0.82;;
12880;SDS011;6508;53.786;9.996;2023-07-31T12:21:43;3.20;;;1.10;;
12880;SDS011;6508;53.786;9.996;2023-07-31T12:24:10;3.00;;;0.80;;
12880;SDS011;6508;53.786;9.996;2023-07-31T12:26:38;0.95;;;0.90;;
12880;SDS011;6508;53.786;9.996;2023-07-31T12:29:07;3.13;;;0.88;;
12880;SDS011;6508;53.786;9.996;2023-07-31T12:31:35;4.93;;;1.67;;
12880;SDS011;6508;53.786;9.996;2023-07-31T12:34:03;0.82;;;0.82;;
12880;SDS011;6508;53.786;9.996;2023-07-31T12:36:32;0.80;;;0.80;;
12880;SDS011;6508;53.786;9.996;2023-07-31T12:39:02;0.80;;;0.80;;
12880;SDS011;6508;53.786;9.996;2023-07-31T12:41:31;0.98;;;0.93;;
12880;SDS011;6508;53.786;9.996;2023-07-31T12:43:58;1.15;;;1.00;;
12880;SDS011;6508;53.786;9.996;2023-07-31T12:46:26;3.13;;;1.27;;
12880;SDS011;6508;53.786;9.996;2023-07-31T12:48:54;0.80;;;0.80;;
12880;SDS011;6508;53.786;9.996;2023-07-31T12:51:21;0.80;;;0.80;;
12880;SDS011;6508;53.786;9.996;2023-07-31T12:53:51;0.75;;;0.75;;
12880;SDS011;6508;53.786;9.996;2023-07-31T12:56:19;0.90;;;0.90;;
12880;SDS011;6508;53.786;9.996;2023-07-31T12:58:46;0.82;;;0.82;;
12880;SDS011;6508;53.786;9.996;2023-07-31T13:01:14;0.68;;;0.68;;
12880;SDS011;6508;53.786;9.996;2023-07-31T13:03:42;0.80;;;0.80;;
12880;SDS011;6508;53.786;9.996;2023-07-31T13:06:10;1.25;;;0.80;;
12880;SDS011;6508;53.786;9.996;2023-07-31T13:08:38;1.75;;;0.80;;
12880;SDS011;6508;53.786;9.996;2023-07-31T13:11:07;0.90;;;0.90;;
12880;SDS011;6508;53.786;9.996;2023-07-31T13:13:34;1.60;;;0.85;;
12880;SDS011;6508;53.786;9.996;2023-07-31T13:16:02;1.02;;;1.02;;
12880;SDS011;6508;53.786;9.996;2023-07-31T13:18:30;2.55;;;1.38;;
12880;SDS011;6508;53.786;9.996;2023-07-31T13:20:57;1.08;;;1.08;;
12880;SDS011;6508;53.786;9.996;2023-07-31T13:23:25;1.10;;;1.10;;
12880;SDS011;6508;53.786;9.996;2023-07-31T13:25:53;1.17;;;1.08;;
12880;SDS011;6508;53.786;9.996;2023-07-31T13:28:22;1.50;;;1.10;;
12880;SDS011;6508;53.786;9.996;2023-07-31T13:30:49;0.93;;;0.93;;
12880;SDS011;6508;53.786;9.996;2023-07-31T13:33:17;0.80;;;0.80;;
12880;SDS011;6508;53.786;9.996;2023-07-31T13:36:03;9.82;;;1.20;;
12880;SDS011;6508;53.786;9.996;2023-07-31T13:38:31;1.45;;;0.80;;
12880;SDS011;6508;53.786;9.996;2023-07-31T13:40:59;1.00;;;1.00;;
12880;SDS011;6508;53.786;9.996;2023-07-31T13:43:28;1.10;;;1.10;;
12880;SDS011;6508;53.786;9.996;2023-07-31T13:45:56;0.90;;;0.90;;
12880;SDS011;6508;53.786;9.996;2023-07-31T13:48:24;1.98;;;0.93;;
12880;SDS011;6508;53.786;9.996;2023-07-31T13:50:51;0.98;;;0.80;;
12880;SDS011;6508;53.786;9.996;2023-07-31T13:53:19;0.90;;;0.90;;
12880;SDS011;6508;53.786;9.996;2023-07-31T13:55:47;2.80;;;1.00;;
12880;SDS011;6508;53.786;9.996;2023-07-31T13:58:15;0.90;;;0.90;;
12880;SDS011;6508;53.786;9.996;2023-07-31T14:00:44;0.88;;;0.88;;
12880;SDS011;6508;53.786;9.996;2023-07-31T14:03:12;0.82;;;0.82;;
12880;SDS011;6508;53.786;9.996;2023-07-31T14:05:40;1.55;;;0.93;;
12880;SDS011;6508;53.786;9.996;2023-07-31T14:08:08;0.90;;;0.90;;
12880;SDS011;6508;53.786;9.996;2023-07-31T14:10:36;1.02;;;0.98;;
12880;SDS011;6508;53.786;9.996;2023-07-31T14:13:04;1.80;;;1.05;;
12880;SDS011;6508;53.786;9.996;2023-07-31T14:15:31;1.20;;;1.10;;
12880;SDS011;6508;53.786;9.996;2023-07-31T14:18:04;1.55;;;0.73;;
12880;SDS011;6508;53.786;9.996;2023-07-31T14:20:32;1.30;;;1.20;;
12880;SDS011;6508;53.786;9.996;2023-07-31T14:22:59;1.05;;;0.88;;
12880;SDS011;6508;53.786;9.996;2023-07-31T14:25:27;1.27;;;1.17;;
12880;SDS011;6508;53.786;9.996;2023-07-31T14:27:55;0.90;;;0.90;;
12880;SDS011;6508;53.786;9.996;2023-07-31T14:30:22;3.72;;;1.10;;
12880;SDS011;6508;53.786;9.996;2023-07-31T14:32:50;1.60;;;1.00;;
12880;SDS011;6508;53.786;9.996;2023-07-31T14:35:19;1.00;;;1.00;;
12880;SDS011;6508;53.786;9.996;2023-07-31T14:37:47;0.90;;;0.90;;
12880;SDS011;6508;53.786;9.996;2023-07-31T14:40:14;0.77;;;0.77;;
12880;SDS011;6508;53.786;9.996;2023-07-31T14:42:42;1.25;;;0.93;;
12880;SDS011;6508;53.786;9.996;2023-07-31T14:45:10;1.98;;;1.00;;
12880;SDS011;6508;53.786;9.996;2023-07-31T14:47:38;1.00;;;0.80;;
12880;SDS011;6508;53.786;9.996;2023-07-31T14:50:06;1.05;;;0.90;;
12880;SDS011;6508;53.786;9.996;2023-07-31T14:52:35;1.00;;;0.70;;
12880;SDS011;6508;53.786;9.996;2023-07-31T14:55:03;0.93;;;0.90;;
12880;SDS011;6508;53.786;9.996;2023-07-31T14:57:30;1.40;;;0.90;;
12880;SDS011;6508;53.786;9.996;2023-07-31T14:59:58;1.25;;;0.70;;
12880;SDS011;6508;53.786;9.996;2023-07-31T15:02:26;0.77;;;0.60;;
12880;SDS011;6508;53.786;9.996;2023-07-31T15:04:54;0.60;;;0.60;;
12880;SDS011;6508;53.786;9.996;2023-07-31T15:07:23;1.05;;;0.60;;